sensor_id;sensor_type;location;lat;lon;timestamp;P1;durP1;ratioP1;P2;durP2;ratioP2
71202;SDS011;58929;47.490;19.090;2023-09-08T00:00:31;6.85;;;4.47;;
71202;SDS011;58929;47.490;19.090;2023-09-08T00:02:59;7.20;;;4.30;;
71202;SDS011;58929;47.490;19.090;2023-09-08T00:05:27;8.35;;;4.43;;
71202;SDS011;58929;47.490;19.090;2023-09-08T00:07:55;9.57;;;4.97;;
71202;SDS011;58929;47.490;19.090;2023-09-08T00:10:23;9.27;;;4.43;;
71202;SDS011;58929;47.490;19.090;2023-09-08T00:12:51;11.07;;;4.60;;
71202;SDS011;58929;47.490;19.090;2023-09-08T00:15:22;8.95;;;4.90;;
71202;SDS011;58929;47.490;19.090;2023-09-08T00:17:50;7.55;;;5.07;;
71202;SDS011;58929;47.490;19.090;2023-09-08T00:20:18;5.72;;;4.50;;
71202;SDS011;58929;47.490;19.090;2023-09-08T00:22:46;7.35;;;4.18;;
71202;SDS011;58929;47.490;19.090;2023-09-08T00:25:14;8.88;;;4.25;;
71202;SDS011;58929;47.490;19.090;2023-09-08T00:27:42;6.30;;;4.00;;
71202;SDS011;58929;47.490;19.090;2023-09-08T00:30:11;6.60;;;4.15;;
71202;SDS011;58929;47.490;19.090;2023-09-08T00:32:40;9.75;;;5.22;;
71202;SDS011;58929;47.490;19.090;2023-09-08T00:35:10;8.98;;;4.60;;
71202;SDS011;58929;47.490;19.090;2023-09-08T00:37:39;9.77;;;4.85;;
71202;SDS011;58929;47.490;19.090;2023-09-08T00:40:07;7.88;;;4.55;;
71202;SDS011;58929;47.490;19.090;2023-09-08T00:42:36;6.10;;;4.03;;
71202;SDS011;58929;47.490;19.090;2023-09-08T00:45:04;7.05;;;4.30;;
71202;SDS011;58929;47.490;19.090;2023-09-08T00:47:32;10.25;;;4.28;;
71202;SDS011;58929;47.490;19.090;2023-09-08T00:50:02;6.85;;;4.03;;
71202;SDS011;58929;47.490;19.090;2023-09-08T00:52:31;6.85;;;3.85;;
71202;SDS011;58929;47.490;19.090;2023-09-08T00:55:00;8.77;;;4.35;;
71202;SDS011;58929;47.490;19.090;2023-09-08T00:57:28;7.97;;;4.30;;
71202;SDS011;58929;47.490;19.090;2023-09-08T00:59:56;13.80;;;4.50;;
71202;SDS011;58929;47.490;19.090;2023-09-08T01:02:26;6.90;;;4.20;;
71202;SDS011;58929;47.490;19.090;2023-09-08T01:04:55;8.43;;;4.97;;
71202;SDS011;58929;47.490;19.090;2023-09-08T01:07:27;6.55;;;4.50;;
71202;SDS011;58929;47.490;19.090;2023-09-08T01:09:57;7.70;;;4.18;;
71202;SDS011;58929;47.490;19.090;2023-09-08T01:12:30;7.72;;;4.38;;
71202;SDS011;58929;47.490;19.090;2023-09-08T01:14:58;6.20;;;4.07;;
71202;SDS011;58929;47.490;19.090;2023-09-08T01:17:26;6.50;;;4.80;;
71202;SDS011;58929;47.490;19.090;2023-09-08T01:19:55;9.23;;;4.55;;
71202;SDS011;58929;47.490;19.090;2023-09-08T01:25:19;7.53;;;4.57;;
71202;SDS011;58929;47.490;19.090;2023-09-08T01:27:49;9.88;;;5.03;;
71202;SDS011;58929;47.490;19.090;2023-09-08T01:30:18;8.13;;;4.85;;
71202;SDS011;58929;47.490;19.090;2023-09-08T01:32:48;6.50;;;4.18;;
71202;SDS011;58929;47.490;19.090;2023-09-08T01:35:17;8.88;;;4.93;;
71202;SDS011;58929;47.490;19.090;2023-09-08T01:37:45;8.98;;;5.05;;
71202;SDS011;58929;47.490;19.090;2023-09-08T01:40:15;9.25;;;5.65;;
71202;SDS011;58929;47.490;19.090;2023-09-08T01:42:44;10.73;;;5.30;;
71202;SDS011;58929;47.490;19.090;2023-09-08T01:45:12;8.63;;;5.00;;
71202;SDS011;58929;47.490;19.090;2023-09-08T01:47:40;9.05;;;5.95;;
71202;SDS011;58929;47.490;19.090;2023-09-08T01:50:09;9.68;;;6.00;;
71202;SDS011;58929;47.490;19.090;2023-09-08T01:52:37;9.50;;;5.30;;
71202;SDS011;58929;47.490;19.090;2023-09-08T01:55:05;8.68;;;4.90;;
71202;SDS011;58929;47.490;19.090;2023-09-08T01:57:34;8.60;;;5.40;;
71202;SDS011;58929;47.490;19.090;2023-09-08T02:00:04;9.82;;;5.13;;
71202;SDS011;58929;47.490;19.090;2023-09-08T02:02:37;8.63;;;5.05;;
71202;SDS011;58929;47.490;19.090;2023-09-08T02:05:06;8.48;;;5.47;;
71202;SDS011;58929;47.490;19.090;2023-09-08T02:07:34;10.48;;;5.32;;
71202;SDS011;58929;47.490;19.090;2023-09-08T02:10:02;9.95;;;5.68;;
71202;SDS011;58929;47.490;19.090;2023-09-08T02:12:30;11.77;;;5.75;;
71202;SDS011;58929;47.490;19.090;2023-09-08T02:14:58;12.90;;;5.72;;
71202;SDS011;58929;47.490;19.090;2023-09-08T02:17:29;11.00;;;5.32;;
71202;SDS011;58929;47.490;19.090;2023-09-08T02:19:57;9.38;;;5.43;;
71202;SDS011;58929;47.490;19.090;2023-09-08T02:22:25;8.93;;;4.97;;
71202;SDS011;58929;47.490;19.090;2023-09-08T02:24:53;8.27;;;4.97;;
71202;SDS011;58929;47.490;19.090;2023-09-08T02:27:26;10.70;;;5.35;;
71202;SDS011;58929;47.490;19.090;2023-09-08T02:29:55;10.23;;;5.57;;
71202;SDS011;58929;47.490;19.090;2023-09-08T02:32:23;12.73;;;6.03;;
71202;SDS011;58929;47.490;19.090;2023-09-08T02:34:53;8.82;;;5.20;;
71202;SDS011;58929;47.490;19.090;2023-09-08T02:37:21;9.13;;;5.32;;
71202;SDS011;58929;47.490;19.090;2023-09-08T02:39:50;10.98;;;6.35;;
71202;SDS011;58929;47.490;19.090;2023-09-08T02:42:18;12.05;;;6.18;;
71202;SDS011;58929;47.490;19.090;2023-09-08T02:44:46;10.65;;;6.40;;
71202;SDS011;58929;47.490;19.090;2023-09-08T02:47:14;13.75;;;7.07;;
71202;SDS011;58929;47.490;19.090;2023-09-08T02:49:43;10.02;;;6.38;;
71202;SDS011;58929;47.490;19.090;2023-09-08T02:52:12;17.60;;;6.15;;
71202;SDS011;58929;47.490;19.090;2023-09-08T02:54:40;11.57;;;4.72;;
71202;SDS011;58929;47.490;19.090;2023-09-08T02:57:08;8.85;;;5.28;;
71202;SDS011;58929;47.490;19.090;2023-09-08T02:59:36;9.10;;;4.72;;
71202;SDS011;58929;47.490;19.090;2023-09-08T03:02:04;11.15;;;5.22;;
71202;SDS011;58929;47.490;19.090;2023-09-08T03:04:32;7.68;;;4.30;;
71202;SDS011;58929;47.490;19.090;2023-09-08T03:07:02;10.35;;;4.88;;
71202;SDS011;58929;47.490;19.090;2023-09-08T03:09:31;11.60;;;5.18;;
71202;SDS011;58929;47.490;19.090;2023-09-08T03:12:01;7.72;;;4.93;;
71202;SDS011;58929;47.490;19.090;2023-09-08T03:14:30;9.43;;;4.82;;
71202;SDS011;58929;47.490;19.090;2023-09-08T03:16:57;9.60;;;4.93;;
71202;SDS011;58929;47.490;19.090;2023-09-08T03:19:26;8.13;;;4.95;;
71202;SDS011;58929;47.490;19.090;2023-09-08T03:21:54;8.25;;;5.13;;
71202;SDS011;58929;47.490;19.090;2023-09-08T03:24:22;11.10;;;4.88;;
71202;SDS011;58929;47.490;19.090;2023-09-08T03:26:51;11.45;;;4.70;;
71202;SDS011;58929;47.490;19.090;2023-09-08T03:29:21;9.82;;;4.70;;
71202;SDS011;58929;47.490;19.090;2023-09-08T03:31:49;7.90;;;4.38;;
71202;SDS011;58929;47.490;19.090;2023-09-08T03:34:17;12.77;;;5.45;;
71202;SDS011;58929;47.490;19.090;2023-09-08T03:36:48;9.80;;;5.43;;
71202;SDS011;58929;47.490;19.090;2023-09-08T03:39:16;8.88;;;5.35;;
71202;SDS011;58929;47.490;19.090;2023-09-08T03:41:46;13.13;;;5.65;;
71202;SDS011;58929;47.490;19.090;2023-09-08T03:44:15;7.53;;;4.88;;
71202;SDS011;58929;47.490;19.090;2023-09-08T03:46:43;9.80;;;5.10;;
71202;SDS011;58929;47.490;19.090;2023-09-08T03:49:13;9.57;;;5.18;;
71202;SDS011;58929;47.490;19.090;2023-09-08T03:51:41;8.95;;;5.15;;
71202;SDS011;58929;47.490;19.090;2023-09-08T03:54:09;14.98;;;5.55;;
71202;SDS011;58929;47.490;19.090;2023-09-08T03:56:37;10.20;;;5.28;;
71202;SDS011;58929;47.490;19.090;2023-09-08T03:59:05;9.38;;;5.60;;
71202;SDS011;58929;47.490;19.090;2023-09-08T04:01:35;9.68;;;5.70;;
71202;SDS011;58929;47.490;19.090;2023-09-08T04:04:03;12.80;;;6.88;;
71202;SDS011;58929;47.490;19.090;2023-09-08T04:06:31;8.68;;;5.18;;
71202;SDS011;58929;47.490;19.090;2023-09-08T04:09:01;11.13;;;5.80;;
71202;SDS011;58929;47.490;19.090;2023-09-08T04:11:29;9.73;;;5.78;;
71202;SDS011;58929;47.490;19.090;2023-09-08T04:13:57;12.35;;;5.65;;
71202;SDS011;58929;47.490;19.090;2023-09-08T04:16:31;9.27;;;5.85;;
71202;SDS011;58929;47.490;19.090;2023-09-08T04:19:01;11.70;;;6.25;;
71202;SDS011;58929;47.490;19.090;2023-09-08T04:21:29;17.02;;;5.95;;
71202;SDS011;58929;47.490;19.090;2023-09-08T04:23:58;13.38;;;6.18;;
71202;SDS011;58929;47.490;19.090;2023-09-08T04:26:26;15.27;;;6.28;;
71202;SDS011;58929;47.490;19.090;2023-09-08T04:28:54;13.38;;;5.90;;
71202;SDS011;58929;47.490;19.090;2023-09-08T04:31:30;11.60;;;5.22;;
71202;SDS011;58929;47.490;19.090;2023-09-08T04:34:07;12.68;;;5.68;;
71202;SDS011;58929;47.490;19.090;2023-09-08T04:36:35;14.65;;;5.47;;
71202;SDS011;58929;47.490;19.090;2023-09-08T04:39:03;11.13;;;5.63;;
71202;SDS011;58929;47.490;19.090;2023-09-08T04:41:32;15.25;;;6.78;;
71202;SDS011;58929;47.490;19.090;2023-09-08T04:44:00;23.30;;;8.40;;
71202;SDS011;58929;47.490;19.090;2023-09-08T04:46:28;26.98;;;13.30;;
71202;SDS011;58929;47.490;19.090;2023-09-08T04:48:56;18.02;;;10.20;;
71202;SDS011;58929;47.490;19.090;2023-09-08T04:51:26;12.13;;;7.07;;
71202;SDS011;58929;47.490;19.090;2023-09-08T04:53:54;18.75;;;8.75;;
71202;SDS011;58929;47.490;19.090;2023-09-08T04:56:23;13.32;;;6.68;;
71202;SDS011;58929;47.490;19.090;2023-09-08T04:58:51;14.55;;;7.43;;
71202;SDS011;58929;47.490;19.090;2023-09-08T05:01:19;15.43;;;7.25;;
71202;SDS011;58929;47.490;19.090;2023-09-08T05:03:47;13.45;;;6.53;;
71202;SDS011;58929;47.490;19.090;2023-09-08T05:06:15;12.45;;;6.88;;
71202;SDS011;58929;47.490;19.090;2023-09-08T05:08:45;11.73;;;5.80;;
71202;SDS011;58929;47.490;19.090;2023-09-08T05:11:19;53.97;;;27.15;;
71202;SDS011;58929;47.490;19.090;2023-09-08T05:13:48;29.95;;;15.30;;
71202;SDS011;58929;47.490;19.090;2023-09-08T05:16:16;12.40;;;6.88;;
71202;SDS011;58929;47.490;19.090;2023-09-08T05:18:49;15.20;;;6.60;;
71202;SDS011;58929;47.490;19.090;2023-09-08T05:21:18;10.75;;;6.75;;
71202;SDS011;58929;47.490;19.090;2023-09-08T05:23:48;17.05;;;6.47;;
71202;SDS011;58929;47.490;19.090;2023-09-08T05:26:16;14.75;;;6.72;;
71202;SDS011;58929;47.490;19.090;2023-09-08T05:28:44;11.77;;;6.13;;
71202;SDS011;58929;47.490;19.090;2023-09-08T05:31:12;16.92;;;6.15;;
71202;SDS011;58929;47.490;19.090;2023-09-08T05:33:40;14.45;;;6.75;;
71202;SDS011;58929;47.490;19.090;2023-09-08T05:36:08;9.90;;;6.15;;
71202;SDS011;58929;47.490;19.090;2023-09-08T05:38:40;10.70;;;6.50;;
71202;SDS011;58929;47.490;19.090;2023-09-08T05:41:09;14.20;;;6.45;;
71202;SDS011;58929;47.490;19.090;2023-09-08T05:43:37;13.75;;;6.50;;
71202;SDS011;58929;47.490;19.090;2023-09-08T05:46:06;24.27;;;13.88;;
71202;SDS011;58929;47.490;19.090;2023-09-08T05:48:35;37.50;;;18.55;;
71202;SDS011;58929;47.490;19.090;2023-09-08T05:51:04;21.83;;;11.02;;
71202;SDS011;58929;47.490;19.090;2023-09-08T05:53:33;21.00;;;10.63;;
71202;SDS011;58929;47.490;19.090;2023-09-08T05:56:03;16.40;;;9.25;;
71202;SDS011;58929;47.490;19.090;2023-09-08T05:58:32;13.70;;;7.43;;
71202;SDS011;58929;47.490;19.090;2023-09-08T06:01:01;11.98;;;6.20;;
71202;SDS011;58929;47.490;19.090;2023-09-08T06:03:31;12.93;;;6.72;;
71202;SDS011;58929;47.490;19.090;2023-09-08T06:05:59;11.00;;;7.05;;
71202;SDS011;58929;47.490;19.090;2023-09-08T06:08:27;13.70;;;6.22;;
71202;SDS011;58929;47.490;19.090;2023-09-08T06:10:55;17.67;;;5.97;;
71202;SDS011;58929;47.490;19.090;2023-09-08T06:13:23;19.30;;;9.82;;
71202;SDS011;58929;47.490;19.090;2023-09-08T06:15:53;12.98;;;7.22;;
71202;SDS011;58929;47.490;19.090;2023-09-08T06:18:22;17.45;;;5.60;;
71202;SDS011;58929;47.490;19.090;2023-09-08T06:20:50;10.57;;;6.57;;
71202;SDS011;58929;47.490;19.090;2023-09-08T06:23:20;13.20;;;6.75;;
71202;SDS011;58929;47.490;19.090;2023-09-08T06:25:49;9.10;;;4.43;;
71202;SDS011;58929;47.490;19.090;2023-09-08T06:28:18;11.70;;;6.07;;
71202;SDS011;58929;47.490;19.090;2023-09-08T06:30:46;16.65;;;6.10;;
71202;SDS011;58929;47.490;19.090;2023-09-08T06:33:16;10.05;;;5.07;;
71202;SDS011;58929;47.490;19.090;2023-09-08T06:35:45;9.80;;;5.10;;
71202;SDS011;58929;47.490;19.090;2023-09-08T06:38:13;14.45;;;5.65;;
71202;SDS011;58929;47.490;19.090;2023-09-08T06:40:41;13.18;;;5.80;;
71202;SDS011;58929;47.490;19.090;2023-09-08T06:43:10;15.48;;;5.95;;
71202;SDS011;58929;47.490;19.090;2023-09-08T06:45:47;9.40;;;5.40;;
71202;SDS011;58929;47.490;19.090;2023-09-08T06:48:18;10.68;;;5.80;;
71202;SDS011;58929;47.490;19.090;2023-09-08T06:50:47;19.50;;;5.32;;
71202;SDS011;58929;47.490;19.090;2023-09-08T06:53:15;12.43;;;6.00;;
71202;SDS011;58929;47.490;19.090;2023-09-08T06:55:43;12.98;;;5.40;;
71202;SDS011;58929;47.490;19.090;2023-09-08T06:58:12;11.75;;;6.32;;
71202;SDS011;58929;47.490;19.090;2023-09-08T07:00:42;12.43;;;6.30;;
71202;SDS011;58929;47.490;19.090;2023-09-08T07:03:10;9.77;;;4.97;;
71202;SDS011;58929;47.490;19.090;2023-09-08T07:05:40;8.90;;;5.50;;
71202;SDS011;58929;47.490;19.090;2023-09-08T07:08:09;10.40;;;5.22;;
71202;SDS011;58929;47.490;19.090;2023-09-08T07:10:38;9.57;;;5.40;;
71202;SDS011;58929;47.490;19.090;2023-09-08T07:13:08;10.60;;;6.15;;
71202;SDS011;58929;47.490;19.090;2023-09-08T07:15:42;9.27;;;5.28;;
71202;SDS011;58929;47.490;19.090;2023-09-08T07:18:10;12.98;;;5.40;;
71202;SDS011;58929;47.490;19.090;2023-09-08T07:20:40;12.50;;;5.53;;
71202;SDS011;58929;47.490;19.090;2023-09-08T07:23:08;11.05;;;5.65;;
71202;SDS011;58929;47.490;19.090;2023-09-08T07:25:36;7.05;;;4.90;;
71202;SDS011;58929;47.490;19.090;2023-09-08T07:28:05;10.13;;;5.90;;
71202;SDS011;58929;47.490;19.090;2023-09-08T07:30:36;7.03;;;4.63;;
71202;SDS011;58929;47.490;19.090;2023-09-08T07:33:04;8.10;;;5.07;;
71202;SDS011;58929;47.490;19.090;2023-09-08T07:35:35;11.27;;;5.32;;
71202;SDS011;58929;47.490;19.090;2023-09-08T07:38:06;11.40;;;5.85;;
71202;SDS011;58929;47.490;19.090;2023-09-08T07:40:34;8.48;;;5.43;;
71202;SDS011;58929;47.490;19.090;2023-09-08T07:43:05;12.18;;;5.78;;
71202;SDS011;58929;47.490;19.090;2023-09-08T07:45:34;8.27;;;4.80;;
71202;SDS011;58929;47.490;19.090;2023-09-08T07:48:03;12.27;;;5.43;;
71202;SDS011;58929;47.490;19.090;2023-09-08T07:50:31;14.48;;;7.13;;
71202;SDS011;58929;47.490;19.090;2023-09-08T07:52:59;11.68;;;5.80;;
71202;SDS011;58929;47.490;19.090;2023-09-08T07:55:29;12.20;;;5.15;;
71202;SDS011;58929;47.490;19.090;2023-09-08T07:57:58;12.10;;;4.93;;
71202;SDS011;58929;47.490;19.090;2023-09-08T08:00:28;14.55;;;6.18;;
71202;SDS011;58929;47.490;19.090;2023-09-08T08:02:56;14.27;;;6.25;;
71202;SDS011;58929;47.490;19.090;2023-09-08T08:05:24;8.88;;;4.93;;
71202;SDS011;58929;47.490;19.090;2023-09-08T08:07:53;9.95;;;5.53;;
71202;SDS011;58929;47.490;19.090;2023-09-08T08:10:21;12.10;;;4.85;;
71202;SDS011;58929;47.490;19.090;2023-09-08T08:12:50;13.75;;;5.60;;
71202;SDS011;58929;47.490;19.090;2023-09-08T08:15:19;7.10;;;4.75;;
71202;SDS011;58929;47.490;19.090;2023-09-08T08:17:47;8.63;;;4.55;;
71202;SDS011;58929;47.490;19.090;2023-09-08T08:20:22;11.80;;;5.30;;
71202;SDS011;58929;47.490;19.090;2023-09-08T08:22:50;13.35;;;5.53;;
71202;SDS011;58929;47.490;19.090;2023-09-08T08:25:18;16.05;;;5.80;;
71202;SDS011;58929;47.490;19.090;2023-09-08T08:27:46;10.80;;;5.97;;
71202;SDS011;58929;47.490;19.090;2023-09-08T08:30:16;18.17;;;5.38;;
71202;SDS011;58929;47.490;19.090;2023-09-08T08:32:44;10.70;;;4.70;;
71202;SDS011;58929;47.490;19.090;2023-09-08T08:35:12;14.13;;;5.20;;
71202;SDS011;58929;47.490;19.090;2023-09-08T08:37:40;15.63;;;6.00;;
71202;SDS011;58929;47.490;19.090;2023-09-08T08:40:09;15.27;;;5.32;;
71202;SDS011;58929;47.490;19.090;2023-09-08T08:42:37;13.70;;;5.85;;
71202;SDS011;58929;47.490;19.090;2023-09-08T08:45:06;13.95;;;5.13;;
71202;SDS011;58929;47.490;19.090;2023-09-08T08:47:36;6.70;;;4.32;;
71202;SDS011;58929;47.490;19.090;2023-09-08T08:50:04;12.45;;;5.57;;
71202;SDS011;58929;47.490;19.090;2023-09-08T08:52:33;9.73;;;5.07;;
71202;SDS011;58929;47.490;19.090;2023-09-08T08:55:01;12.63;;;5.22;;
71202;SDS011;58929;47.490;19.090;2023-09-08T08:57:30;8.50;;;5.57;;
71202;SDS011;58929;47.490;19.090;2023-09-08T08:59:59;12.63;;;5.30;;
71202;SDS011;58929;47.490;19.090;2023-09-08T09:02:28;9.13;;;4.45;;
71202;SDS011;58929;47.490;19.090;2023-09-08T09:04:57;11.57;;;5.07;;
71202;SDS011;58929;47.490;19.090;2023-09-08T09:07:25;16.30;;;5.88;;
71202;SDS011;58929;47.490;19.090;2023-09-08T09:09:53;14.38;;;5.25;;
71202;SDS011;58929;47.490;19.090;2023-09-08T09:12:22;14.10;;;5.38;;
71202;SDS011;58929;47.490;19.090;2023-09-08T09:14:52;10.95;;;4.97;;
71202;SDS011;58929;47.490;19.090;2023-09-08T09:17:20;7.97;;;4.95;;
71202;SDS011;58929;47.490;19.090;2023-09-08T09:19:48;14.93;;;6.55;;
71202;SDS011;58929;47.490;19.090;2023-09-08T09:22:20;9.35;;;5.75;;
71202;SDS011;58929;47.490;19.090;2023-09-08T09:24:49;8.20;;;4.40;;
71202;SDS011;58929;47.490;19.090;2023-09-08T09:27:17;12.40;;;5.18;;
71202;SDS011;58929;47.490;19.090;2023-09-08T09:29:45;13.80;;;5.35;;
71202;SDS011;58929;47.490;19.090;2023-09-08T09:32:14;9.55;;;5.32;;
71202;SDS011;58929;47.490;19.090;2023-09-08T09:34:49;9.48;;;5.68;;
71202;SDS011;58929;47.490;19.090;2023-09-08T09:37:18;9.18;;;4.40;;
71202;SDS011;58929;47.490;19.090;2023-09-08T09:39:49;9.43;;;5.07;;
71202;SDS011;58929;47.490;19.090;2023-09-08T09:42:17;7.72;;;4.35;;
71202;SDS011;58929;47.490;19.090;2023-09-08T09:44:46;8.93;;;4.63;;
71202;SDS011;58929;47.490;19.090;2023-09-08T09:47:15;8.02;;;4.85;;
71202;SDS011;58929;47.490;19.090;2023-09-08T09:49:44;9.95;;;4.68;;
71202;SDS011;58929;47.490;19.090;2023-09-08T09:52:12;17.80;;;5.10;;
71202;SDS011;58929;47.490;19.090;2023-09-08T09:54:41;7.22;;;4.63;;
71202;SDS011;58929;47.490;19.090;2023-09-08T09:57:11;33.38;;;5.13;;
71202;SDS011;58929;47.490;19.090;2023-09-08T09:59:40;12.32;;;4.85;;
71202;SDS011;58929;47.490;19.090;2023-09-08T10:02:09;7.78;;;4.60;;
71202;SDS011;58929;47.490;19.090;2023-09-08T10:04:39;10.30;;;5.38;;
71202;SDS011;58929;47.490;19.090;2023-09-08T10:07:08;11.02;;;4.57;;
71202;SDS011;58929;47.490;19.090;2023-09-08T10:09:36;7.03;;;4.68;;
71202;SDS011;58929;47.490;19.090;2023-09-08T10:12:04;15.23;;;5.10;;
71202;SDS011;58929;47.490;19.090;2023-09-08T10:14:35;10.70;;;5.03;;
71202;SDS011;58929;47.490;19.090;2023-09-08T10:17:03;8.65;;;4.95;;
71202;SDS011;58929;47.490;19.090;2023-09-08T10:19:33;5.80;;;4.07;;
71202;SDS011;58929;47.490;19.090;2023-09-08T10:22:11;8.50;;;4.55;;
71202;SDS011;58929;47.490;19.090;2023-09-08T10:24:39;11.18;;;4.60;;
71202;SDS011;58929;47.490;19.090;2023-09-08T10:27:09;6.60;;;4.70;;
71202;SDS011;58929;47.490;19.090;2023-09-08T10:29:38;8.85;;;4.82;;
71202;SDS011;58929;47.490;19.090;2023-09-08T10:32:07;9.95;;;4.53;;
71202;SDS011;58929;47.490;19.090;2023-09-08T10:34:36;12.05;;;4.97;;
71202;SDS011;58929;47.490;19.090;2023-09-08T10:37:17;6.72;;;3.60;;
71202;SDS011;58929;47.490;19.090;2023-09-08T10:39:45;7.20;;;4.25;;
71202;SDS011;58929;47.490;19.090;2023-09-08T10:42:19;10.40;;;4.95;;
71202;SDS011;58929;47.490;19.090;2023-09-08T10:45:14;9.40;;;3.83;;
71202;SDS011;58929;47.490;19.090;2023-09-08T10:50:26;6.90;;;4.30;;
71202;SDS011;58929;47.490;19.090;2023-09-08T10:53:04;6.10;;;4.15;;
71202;SDS011;58929;47.490;19.090;2023-09-08T10:55:36;9.55;;;4.38;;
71202;SDS011;58929;47.490;19.090;2023-09-08T10:58:04;9.98;;;5.07;;
71202;SDS011;58929;47.490;19.090;2023-09-08T11:00:43;8.90;;;4.28;;
71202;SDS011;58929;47.490;19.090;2023-09-08T11:03:12;8.40;;;4.60;;
71202;SDS011;58929;47.490;19.090;2023-09-08T11:05:41;7.05;;;4.07;;
71202;SDS011;58929;47.490;19.090;2023-09-08T11:08:09;11.25;;;4.40;;
71202;SDS011;58929;47.490;19.090;2023-09-08T11:10:37;11.38;;;4.18;;
71202;SDS011;58929;47.490;19.090;2023-09-08T11:13:07;7.93;;;4.10;;
71202;SDS011;58929;47.490;19.090;2023-09-08T11:15:35;9.00;;;5.28;;
71202;SDS011;58929;47.490;19.090;2023-09-08T11:18:06;15.95;;;9.18;;
71202;SDS011;58929;47.490;19.090;2023-09-08T11:20:34;10.40;;;5.38;;
71202;SDS011;58929;47.490;19.090;2023-09-08T11:23:03;24.10;;;4.85;;
71202;SDS011;58929;47.490;19.090;2023-09-08T11:25:32;11.00;;;4.15;;
71202;SDS011;58929;47.490;19.090;2023-09-08T11:28:03;12.05;;;5.05;;
71202;SDS011;58929;47.490;19.090;2023-09-08T11:30:31;9.13;;;4.25;;
71202;SDS011;58929;47.490;19.090;2023-09-08T11:32:59;15.13;;;5.38;;
71202;SDS011;58929;47.490;19.090;2023-09-08T11:35:31;11.55;;;4.50;;
71202;SDS011;58929;47.490;19.090;2023-09-08T11:37:59;13.32;;;4.00;;
71202;SDS011;58929;47.490;19.090;2023-09-08T11:40:31;6.22;;;4.55;;
71202;SDS011;58929;47.490;19.090;2023-09-08T11:43:01;8.73;;;4.53;;
71202;SDS011;58929;47.490;19.090;2023-09-08T11:45:30;6.95;;;4.00;;
71202;SDS011;58929;47.490;19.090;2023-09-08T11:47:58;6.78;;;4.20;;
71202;SDS011;58929;47.490;19.090;2023-09-08T11:50:26;7.75;;;4.50;;
71202;SDS011;58929;47.490;19.090;2023-09-08T11:52:56;9.75;;;3.90;;
71202;SDS011;58929;47.490;19.090;2023-09-08T11:55:26;11.82;;;3.55;;
71202;SDS011;58929;47.490;19.090;2023-09-08T11:57:54;7.47;;;3.45;;
71202;SDS011;58929;47.490;19.090;2023-09-08T12:00:24;5.78;;;4.20;;
71202;SDS011;58929;47.490;19.090;2023-09-08T12:02:53;5.57;;;3.83;;
71202;SDS011;58929;47.490;19.090;2023-09-08T12:05:22;7.40;;;4.20;;
71202;SDS011;58929;47.490;19.090;2023-09-08T12:07:50;7.55;;;3.83;;
71202;SDS011;58929;47.490;19.090;2023-09-08T12:10:20;6.32;;;3.95;;
71202;SDS011;58929;47.490;19.090;2023-09-08T12:12:49;5.82;;;3.20;;
71202;SDS011;58929;47.490;19.090;2023-09-08T12:15:29;6.28;;;3.80;;
71202;SDS011;58929;47.490;19.090;2023-09-08T12:17:59;8.30;;;3.58;;
71202;SDS011;58929;47.490;19.090;2023-09-08T12:20:28;5.03;;;3.35;;
71202;SDS011;58929;47.490;19.090;2023-09-08T12:22:57;4.80;;;3.35;;
71202;SDS011;58929;47.490;19.090;2023-09-08T12:25:27;6.90;;;3.40;;
71202;SDS011;58929;47.490;19.090;2023-09-08T12:27:58;5.97;;;4.65;;
71202;SDS011;58929;47.490;19.090;2023-09-08T12:30:27;6.82;;;4.82;;
71202;SDS011;58929;47.490;19.090;2023-09-08T12:33:00;5.00;;;4.05;;
71202;SDS011;58929;47.490;19.090;2023-09-08T12:35:28;8.20;;;3.75;;
71202;SDS011;58929;47.490;19.090;2023-09-08T12:37:59;4.25;;;3.20;;
71202;SDS011;58929;47.490;19.090;2023-09-08T12:40:33;3.75;;;2.97;;
71202;SDS011;58929;47.490;19.090;2023-09-08T12:43:01;9.10;;;3.63;;
71202;SDS011;58929;47.490;19.090;2023-09-08T12:45:49;10.50;;;3.58;;
71202;SDS011;58929;47.490;19.090;2023-09-08T12:48:17;10.65;;;3.33;;
71202;SDS011;58929;47.490;19.090;2023-09-08T12:50:44;3.67;;;3.30;;
71202;SDS011;58929;47.490;19.090;2023-09-08T12:53:12;5.22;;;3.40;;
71202;SDS011;58929;47.490;19.090;2023-09-08T12:55:42;5.65;;;2.78;;
71202;SDS011;58929;47.490;19.090;2023-09-08T12:58:10;6.38;;;3.50;;
71202;SDS011;58929;47.490;19.090;2023-09-08T13:00:38;4.10;;;3.30;;
71202;SDS011;58929;47.490;19.090;2023-09-08T13:03:06;9.40;;;3.67;;
71202;SDS011;58929;47.490;19.090;2023-09-08T13:05:34;5.15;;;4.20;;
71202;SDS011;58929;47.490;19.090;2023-09-08T13:08:02;4.55;;;3.50;;
71202;SDS011;58929;47.490;19.090;2023-09-08T13:10:30;6.80;;;3.75;;
71202;SDS011;58929;47.490;19.090;2023-09-08T13:12:59;5.55;;;3.55;;
71202;SDS011;58929;47.490;19.090;2023-09-08T13:15:27;4.47;;;3.55;;
71202;SDS011;58929;47.490;19.090;2023-09-08T13:17:55;6.10;;;3.58;;
71202;SDS011;58929;47.490;19.090;2023-09-08T13:20:24;5.03;;;3.13;;
71202;SDS011;58929;47.490;19.090;2023-09-08T13:22:52;3.13;;;2.75;;
71202;SDS011;58929;47.490;19.090;2023-09-08T13:25:20;6.85;;;2.95;;
71202;SDS011;58929;47.490;19.090;2023-09-08T13:27:48;3.83;;;3.10;;
71202;SDS011;58929;47.490;19.090;2023-09-08T13:30:17;6.10;;;3.10;;
71202;SDS011;58929;47.490;19.090;2023-09-08T13:32:50;4.20;;;3.03;;
71202;SDS011;58929;47.490;19.090;2023-09-08T13:35:18;9.52;;;3.10;;
71202;SDS011;58929;47.490;19.090;2023-09-08T13:37:46;5.22;;;3.13;;
71202;SDS011;58929;47.490;19.090;2023-09-08T13:40:14;11.73;;;3.63;;
71202;SDS011;58929;47.490;19.090;2023-09-08T13:42:42;8.10;;;3.45;;
71202;SDS011;58929;47.490;19.090;2023-09-08T13:45:11;7.75;;;3.40;;
71202;SDS011;58929;47.490;19.090;2023-09-08T13:47:41;7.40;;;3.58;;
71202;SDS011;58929;47.490;19.090;2023-09-08T13:50:09;8.77;;;3.63;;
71202;SDS011;58929;47.490;19.090;2023-09-08T13:52:39;4.40;;;3.35;;
71202;SDS011;58929;47.490;19.090;2023-09-08T13:55:09;14.27;;;3.42;;
71202;SDS011;58929;47.490;19.090;2023-09-08T13:57:40;4.18;;;2.97;;
71202;SDS011;58929;47.490;19.090;2023-09-08T14:00:09;6.53;;;2.78;;
71202;SDS011;58929;47.490;19.090;2023-09-08T14:02:44;4.65;;;2.92;;
71202;SDS011;58929;47.490;19.090;2023-09-08T14:05:18;7.20;;;3.00;;
71202;SDS011;58929;47.490;19.090;2023-09-08T14:07:55;10.75;;;3.92;;
71202;SDS011;58929;47.490;19.090;2023-09-08T14:10:40;4.82;;;2.65;;
71202;SDS011;58929;47.490;19.090;2023-09-08T14:13:28;6.63;;;2.97;;
71202;SDS011;58929;47.490;19.090;2023-09-08T14:15:57;4.32;;;3.10;;
71202;SDS011;58929;47.490;19.090;2023-09-08T14:18:29;6.70;;;3.83;;
71202;SDS011;58929;47.490;19.090;2023-09-08T14:20:58;6.28;;;4.10;;
71202;SDS011;58929;47.490;19.090;2023-09-08T14:23:28;3.65;;;3.08;;
71202;SDS011;58929;47.490;19.090;2023-09-08T14:25:57;5.63;;;3.80;;
71202;SDS011;58929;47.490;19.090;2023-09-08T14:28:25;5.53;;;3.00;;
71202;SDS011;58929;47.490;19.090;2023-09-08T14:30:53;4.18;;;3.13;;
71202;SDS011;58929;47.490;19.090;2023-09-08T14:33:22;8.52;;;3.20;;
71202;SDS011;58929;47.490;19.090;2023-09-08T14:35:51;3.25;;;2.65;;
71202;SDS011;58929;47.490;19.090;2023-09-08T14:38:21;8.13;;;3.20;;
71202;SDS011;58929;47.490;19.090;2023-09-08T14:40:55;5.68;;;2.88;;
71202;SDS011;58929;47.490;19.090;2023-09-08T14:43:24;5.93;;;3.13;;
71202;SDS011;58929;47.490;19.090;2023-09-08T14:45:52;4.35;;;3.10;;